Time;durP1;ratioP1;P1;durP2;ratioP2;P2;SDS_P1;SDS_P2;PMS_P1;PMS_P2;Temp;Humidity;BMP_temperature;BMP_pressure;BME280_temperature;BME280_humidity;BME280_pressure;Samples;Min_cycle;Max_cycle;Signal;HPM_P1;HPM_P2
2022/11/16 04:26:14;;;;;;;18.80;14.20;;;;;;;6.36;100.00;98990.16;1767614;79;21042;-49
2022/11/16 04:28:40;;;;;;;23.00;16.48;;;;;;;6.36;100.00;98987.49;1768101;79;22174;-49
2022/11/16 04:39:26;;;;;;;21.00;15.20;;;;;;;6.38;100.00;98972.27;1767909;79;21048;-49
2022/11/16 04:47:26;;;;;;;19.40;14.35;;;;;;;6.38;100.00;98965.08;1771094;79;22491;-49
2022/11/16 04:49:53;;;;;;;22.25;14.73;;;;;;;6.38;100.00;98961.07;1767402;78;21951;-51
2022/11/16 04:52:20;;;;;;;15.85;13.45;;;;;;;6.41;100.00;98966.77;1770773;78;21308;-49
2022/11/16 04:54:47;;;;;;;16.17;13.83;;;;;;;6.41;100.00;98964.95;1769235;79;21475;-47
2022/11/16 04:57:14;;;;;;;19.27;14.80;;;;;;;6.43;100.00;98968.44;1776828;79;21504;-50
2022/11/16 04:59:41;;;;;;;20.17;13.43;;;;;;;6.45;100.00;98963.03;1741916;78;21053;-47
2022/11/16 05:02:08;;;;;;;18.62;14.70;;;;;;;6.48;100.00;98967.35;1768416;79;21954;-47
2022/11/16 05:04:40;;;;;;;20.10;15.75;;;;;;;6.48;100.00;98964.21;1762177;79;21026;-48
2022/11/16 05:07:10;;;;;;;18.82;14.05;;;;;;;6.49;100.00;98964.62;1763022;79;21037;-47
2022/11/16 05:09:43;;;;;;;16.80;12.98;;;;;;;6.52;100.00;98967.17;1763533;79;21309;-49
2022/11/16 05:12:19;;;;;;;17.07;13.75;;;;;;;6.53;100.00;98960.89;1761221;79;21045;-48
2022/11/16 05:14:47;;;;;;;16.67;13.25;;;;;;;6.55;100.00;98959.48;1765742;79;22106;-48
2022/11/16 05:17:14;;;;;;;15.18;12.45;;;;;;;6.56;100.00;98962.06;1759593;79;21025;-47
2022/11/16 05:22:27;;;;;;;17.00;13.38;;;;;;;6.57;100.00;98961.13;1762680;79;21073;-47
2022/11/16 05:24:54;;;;;;;19.35;12.98;;;;;;;6.57;100.00;98961.13;1764959;79;21497;-49
2022/11/16 05:27:22;;;;;;;16.32;11.97;;;;;;;6.58;100.00;98953.98;1762511;79;21946;-49
2022/11/16 05:29:49;;;;;;;15.30;11.93;;;;;;;6.58;100.00;98952.64;1765583;79;21069;-50
2022/11/16 05:32:18;;;;;;;13.08;10.53;;;;;;;6.59;100.00;98959.73;1766554;79;21045;-49
2022/11/16 05:34:45;;;;;;;16.50;12.93;;;;;;;6.59;100.00;98953.92;1763777;79;21280;-48
2022/11/16 05:38:43;;;;;;;14.73;12.57;;;;;;;6.56;100.00;98935.33;1789944;78;22693;-48
2022/11/16 05:41:11;;;;;;;16.55;12.95;;;;;;;6.58;100.00;98945.49;1765582;79;21061;-52
2022/11/16 05:43:38;;;;;;;18.77;13.35;;;;;;;6.57;100.00;98944.22;1760898;79;21931;-50
2022/11/16 05:46:09;;;;;;;16.23;12.40;;;;;;;6.58;100.00;98944.63;1739520;79;21080;-47
2022/11/16 05:48:36;;;;;;;19.87;13.72;;;;;;;6.55;100.00;98937.60;1744237;80;21084;-49
2022/11/16 05:51:03;;;;;;;23.20;15.28;;;;;;;6.54;100.00;98935.89;1743185;80;22423;-47
2022/11/16 05:53:32;;;;;;;18.23;14.65;;;;;;;6.53;100.00;98936.83;1742385;80;21507;-47
2022/11/16 05:55:59;;;;;;;22.35;15.35;;;;;;;6.51;100.00;98929.33;1747772;80;21939;-49
2022/11/16 05:58:27;;;;;;;19.25;14.15;;;;;;;6.49;100.00;98925.85;1742731;80;21108;-47
2022/11/16 06:00:53;;;;;;;20.20;14.18;;;;;;;6.48;100.00;98934.80;1746304;80;21028;-50
2022/11/16 06:03:20;;;;;;;26.80;17.23;;;;;;;6.48;100.00;98937.95;1745946;80;21427;-46
2022/11/16 06:05:47;;;;;;;22.60;15.63;;;;;;;6.51;100.00;98934.68;1743247;80;21514;-48
2022/11/16 06:08:15;;;;;;;22.00;15.60;;;;;;;6.52;100.00;98932.41;1743555;80;21990;-48
2022/11/16 06:10:41;;;;;;;27.13;16.50;;;;;;;6.53;100.00;98930.61;1747067;80;21065;-46
2022/11/16 06:13:08;;;;;;;20.62;14.33;;;;;;;6.54;100.00;98934.55;1748210;80;21077;-46
2022/11/16 06:15:38;;;;;;;17.80;11.63;;;;;;;6.57;100.00;98932.19;1748232;80;21060;-47
2022/11/16 06:18:06;;;;;;;17.77;13.28;;;;;;;6.58;100.00;98925.44;1744528;80;21068;-45
2022/11/16 06:20:34;;;;;;;15.30;11.97;;;;;;;6.62;100.00;98931.53;1747060;80;21746;-47
2022/11/16 06:23:01;;;;;;;13.50;10.43;;;;;;;6.64;100.00;98926.95;1716180;80;21006;-46
2022/11/16 06:25:29;;;;;;;14.20;10.43;;;;;;;6.65;100.00;98940.27;1744741;80;21602;-45
2022/11/16 06:27:57;;;;;;;15.23;10.82;;;;;;;6.68;100.00;98937.46;1753866;80;21052;-47
2022/11/16 06:30:23;;;;;;;15.38;11.43;;;;;;;6.69;100.00;98935.19;1744137;80;21085;-49
2022/11/16 06:32:50;;;;;;;12.78;9.98;;;;;;;6.71;100.00;98938.67;1751961;80;21897;-47
2022/11/16 06:35:17;;;;;;;12.00;10.32;;;;;;;6.72;100.00;98941.72;1747523;80;21041;-50
2022/11/16 06:37:44;;;;;;;11.95;10.43;;;;;;;6.73;100.00;98941.25;1739002;80;21089;-47
2022/11/16 06:40:11;;;;;;;12.82;9.95;;;;;;;6.75;100.00;98935.38;1731457;80;21049;-47
2022/11/16 06:42:39;;;;;;;13.20;10.53;;;;;;;6.75;100.00;98939.38;1730903;81;21007;-47
2022/11/16 06:45:07;;;;;;;13.50;11.80;;;;;;;6.76;100.00;98935.30;1729594;80;23168;-49
2022/11/16 06:47:37;;;;;;;16.05;12.53;;;;;;;6.77;100.00;98932.16;1729755;80;21291;-47
2022/11/16 06:50:04;;;;;;;14.85;11.83;;;;;;;6.76;100.00;98931.77;1716392;81;21001;-46
2022/11/16 06:52:31;;;;;;;17.27;14.18;;;;;;;6.76;100.00;98924.61;1731521;80;21045;-46
2022/11/16 06:54:57;;;;;;;16.40;11.83;;;;;;;6.78;100.00;98927.22;1731387;80;21014;-47
2022/11/16 06:57:24;;;;;;;14.23;11.18;;;;;;;6.77;100.00;98929.02;1729609;80;21815;-47
2022/11/16 06:59:50;;;;;;;12.35;10.88;;;;;;;6.78;100.00;98926.75;1732194;80;21080;-50
2022/11/16 07:02:20;;;;;;;17.30;12.93;;;;;;;6.80;100.00;98928.02;1695833;82;21086;-47
2022/11/16 07:04:46;;;;;;;14.55;11.93;;;;;;;6.81;100.00;98918.56;1708278;80;21151;-46
2022/11/16 07:07:14;;;;;;;16.30;11.93;;;;;;;6.83;100.00;98913.15;1732036;80;21037;-48
2022/11/16 07:09:43;;;;;;;17.77;11.75;;;;;;;6.85;100.00;98916.63;1706555;80;22021;-49
2022/11/16 07:12:09;;;;;;;14.23;11.85;;;;;;;6.87;100.00;98914.77;1725568;80;21167;-47
2022/11/16 07:14:37;;;;;;;16.12;13.20;;;;;;;6.88;100.00;98918.30;1727694;80;21046;-47
2022/11/16 07:17:05;;;;;;;14.13;12.63;;;;;;;6.87;100.00;98909.41;1731344;80;21101;-48
2022/11/16 07:19:32;;;;;;;14.90;12.03;;;;;;;6.87;100.00;98909.88;1731962;80;21030;-46
2022/11/16 07:21:58;;;;;;;15.80;12.10;;;;;;;6.87;100.00;98908.54;1730991;80;21818;-47
2022/11/16 07:24:25;;;;;;;15.93;12.25;;;;;;;6.87;100.00;98916.09;1729258;80;21362;-46
2022/11/16 07:26:52;;;;;;;17.60;11.05;;;;;;;6.86;100.00;98910.34;1732255;80;21681;-47
2022/11/16 07:29:21;;;;;;;16.20;12.13;;;;;;;6.87;100.00;98914.77;1727676;80;21053;-50
2022/11/16 07:31:49;;;;;;;17.27;12.63;;;;;;;6.87;100.00;98912.08;1725789;80;21073;-46
2022/11/16 07:34:21;;;;;;;14.68;12.28;;;;;;;6.88;100.00;98908.94;1732538;80;21824;-46
2022/11/16 07:36:52;;;;;;;15.28;12.73;;;;;;;6.89;100.00;98906.67;1733061;80;21053;-46
2022/11/16 07:39:20;;;;;;;14.05;11.95;;;;;;;6.90;100.00;98903.02;1699991;82;21240;-49
2022/11/16 07:41:49;;;;;;;18.50;13.78;;;;;;;6.93;100.00;98909.11;1736512;80;21049;-45
2022/11/16 07:44:29;;;;;;;15.15;12.10;;;;;;;6.94;100.00;98905.97;1737748;80;21079;-48
2022/11/16 07:47:01;;;;;;;13.70;11.35;;;;;;;6.94;100.00;98901.95;1740092;80;23574;-47
2022/11/16 07:49:28;;;;;;;12.80;10.82;;;;;;;6.95;100.00;98897.01;1738244;80;21576;-46
2022/11/16 07:51:57;;;;;;;12.55;10.60;;;;;;;6.97;100.00;98897.81;1742819;80;21045;-48
2022/11/16 07:54:42;;;;;;;16.60;11.18;;;;;;;6.98;100.00;98891.49;1742522;80;21407;-47
2022/11/16 07:57:10;;;;;;;13.98;10.70;;;;;;;6.99;100.00;98891.89;1741635;80;21385;-47
2022/11/16 07:59:39;;;;;;;13.78;11.70;;;;;;;7.01;100.00;98890.02;1734906;80;22390;-47
2022/11/16 08:02:09;;;;;;;13.25;10.78;;;;;;;7.03;100.00;98883.66;1738545;80;21168;-48
2022/11/16 08:04:37;;;;;;;12.68;10.48;;;;;;;7.05;100.00;98889.82;1709674;80;22280;-46
2022/11/16 08:07:04;;;;;;;11.85;9.78;;;;;;;7.07;100.00;98886.58;1746416;80;20991;-47
2022/11/16 08:09:33;;;;;;;9.98;8.38;;;;;;;7.10;100.00;98892.27;1738647;80;22178;-46
2022/11/16 08:12:01;;;;;;;10.65;8.80;;;;;;;7.11;100.00;98889.98;1712169;80;22467;-47
2022/11/16 08:14:29;;;;;;;10.70;8.95;;;;;;;7.09;100.00;98886.51;1734207;80;21069;-47
2022/11/16 08:16:55;;;;;;;9.58;8.50;;;;;;;7.09;100.00;98887.38;1673516;83;21777;-46
2022/11/16 08:19:22;;;;;;;10.98;9.10;;;;;;;7.10;100.00;98888.25;1687200;83;21626;-48
2022/11/16 08:21:49;;;;;;;9.85;8.85;;;;;;;7.09;100.00;98888.72;1688881;82;21117;-47
2022/11/16 08:24:17;;;;;;;11.30;9.60;;;;;;;7.09;100.00;98891.86;1681205;82;21933;-48
2022/11/16 08:26:45;;;;;;;10.60;9.50;;;;;;;7.08;100.00;98895.47;1685299;83;21123;-47
2022/11/16 08:29:14;;;;;;;14.33;10.13;;;;;;;7.07;100.00;98891.92;1686212;83;21359;-46
2022/11/16 08:31:43;;;;;;;12.10;10.15;;;;;;;7.08;100.00;98895.47;1687994;83;21085;-50
2022/11/16 08:34:15;;;;;;;14.68;10.72;;;;;;;7.08;100.00;98892.80;1689806;83;21664;-48
2022/11/16 08:36:44;;;;;;;16.23;12.15;;;;;;;7.07;100.00;98900.42;1686946;83;21944;-50
2022/11/16 08:39:12;;;;;;;17.30;12.65;;;;;;;7.05;100.00;98895.17;1669191;83;21551;-50
2022/11/16 08:41:40;;;;;;;19.15;14.65;;;;;;;7.03;100.00;98897.52;1658546;84;21192;-47
2022/11/16 08:44:07;;;;;;;18.30;13.45;;;;;;;7.02;100.00;98900.66;1672717;83;21108;-47
2022/11/16 08:46:36;;;;;;;16.73;14.83;;;;;;;6.98;100.00;98900.86;1667648;83;22375;-47
2022/11/16 08:49:05;;;;;;;25.05;17.20;;;;;;;6.93;100.00;98901.09;1593730;85;22514;-47
2022/11/16 08:51:33;;;;;;;20.45;16.37;;;;;;;6.90;100.00;98902.56;1648962;85;21050;-48
2022/11/16 08:54:02;;;;;;;19.62;15.25;;;;;;;6.86;100.00;98902.78;1643275;85;21132;-47
2022/11/16 08:56:30;;;;;;;18.12;14.65;;;;;;;6.84;100.00;98903.72;1671433;83;21641;-46
2022/11/16 08:58:57;;;;;;;18.37;14.03;;;;;;;6.81;100.00;98905.19;1647975;85;21114;-47
2022/11/16 09:01:26;;;;;;;18.10;13.15;;;;;;;6.80;100.00;98899.44;1670466;83;22663;-48
2022/11/16 09:03:52;;;;;;;19.60;13.40;;;;;;;6.80;100.00;98898.60;1648664;85;21511;-50
2022/11/16 09:06:19;;;;;;;17.52;13.15;;;;;;;6.81;100.00;98898.50;1669237;84;21093;-49
2022/11/16 09:08:46;;;;;;;21.68;15.35;;;;;;;6.81;100.00;98895.83;1703808;82;21081;-50
2022/11/16 09:11:15;;;;;;;18.07;14.90;;;;;;;6.82;100.00;98892.22;1704675;82;21072;-47
2022/11/16 09:13:44;;;;;;;20.40;14.35;;;;;;;6.83;100.00;98884.59;1704693;82;21778;-48
2022/11/16 09:16:15;;;;;;;15.60;13.38;;;;;;;6.84;100.00;98885.00;1707126;82;21089;-48
2022/11/16 09:18:41;;;;;;;14.95;11.03;;;;;;;6.85;100.00;98887.20;1704467;82;22491;-49
2022/11/16 09:21:09;;;;;;;15.98;11.28;;;;;;;6.82;100.00;98878.84;1704144;82;21482;-51
2022/11/16 09:23:35;;;;;;;13.95;10.32;;;;;;;6.83;100.00;98882.39;1705545;82;21528;-50
2022/11/16 09:26:04;;;;;;;13.43;10.30;;;;;;;6.81;100.00;98882.45;1706577;82;22006;-52
2022/11/16 09:28:30;;;;;;;14.63;11.35;;;;;;;6.80;100.00;98876.70;1707751;82;21049;-51
2022/11/16 09:31:02;;;;;;;14.90;11.45;;;;;;;6.78;100.00;98881.28;1704626;82;21380;-53
2022/11/16 09:33:31;;;;;;;18.40;11.45;;;;;;;6.76;100.00;98875.59;1704469;82;21037;-48
2022/11/16 09:36:06;;;;;;;14.33;10.95;;;;;;;6.74;100.00;98870.31;1706516;82;21145;-51
2022/11/16 09:38:42;;;;;;;12.53;10.50;;;;;;;6.73;100.00;98871.25;1716109;80;21884;-48
2022/11/16 09:41:23;;;;;;;15.53;10.43;;;;;;;6.71;100.00;98865.13;1737917;80;21120;-46
2022/11/16 09:44:13;;;;;;;15.15;11.45;;;;;;;6.66;100.00;98864.45;1735477;80;22518;-47
2022/11/16 09:46:43;;;;;;;12.70;9.53;;;;;;;6.59;100.00;98864.34;1701902;82;21058;-47
2022/11/16 09:49:17;;;;;;;11.60;9.25;;;;;;;6.53;100.00;98859.29;1738803;80;21055;-49
2022/11/16 09:51:50;;;;;;;10.58;8.10;;;;;;;6.51;100.00;98854.47;1737247;80;21884;-50
2022/11/16 09:54:20;;;;;;;12.13;7.85;;;;;;;6.47;100.00;98855.53;1739378;80;21654;-50
2022/11/16 09:56:47;;;;;;;7.55;6.45;;;;;;;6.39;100.00;98855.89;1734350;80;21057;-49
2022/11/16 09:59:23;;;;;;;6.92;6.15;;;;;;;6.37;100.00;98843.09;1739031;80;21040;-46
2022/11/16 10:02:01;;;;;;;6.37;5.78;;;;;;;6.38;100.00;98845.30;1734845;80;21108;-46
2022/11/16 10:05:09;;;;;;;7.87;4.28;;;;;;;6.35;100.00;98852.97;1739664;80;21931;-47
2022/11/16 10:07:43;;;;;;;7.92;4.15;;;;;;;6.35;100.00;98848.09;1736032;80;21057;-47
2022/11/16 10:10:15;;;;;;;4.60;4.20;;;;;;;6.29;100.00;98845.71;1736065;80;21045;-47
2022/11/16 10:13:20;;;;;;;5.80;4.03;;;;;;;6.25;100.00;98846.30;1734037;80;21104;-48
2022/11/16 10:16:17;;;;;;;2.75;2.40;;;;;;;6.22;100.00;98843.76;1737424;80;21535;-49
2022/11/16 10:19:06;;;;;;;2.95;2.67;;;;;;;6.18;100.00;98843.98;1737924;80;21927;-48
2022/11/16 10:21:57;;;;;;;2.10;1.95;;;;;;;6.12;100.00;98842.92;1730387;80;21030;-51
2022/11/16 10:24:54;;;;;;;1.80;1.70;;;;;;;6.11;100.00;98842.52;1732494;80;21554;-49
2022/11/16 10:27:56;;;;;;;3.58;2.98;;;;;;;6.15;100.00;98844.10;1736811;80;21072;-46
2022/11/16 10:30:22;;;;;;;3.08;2.60;;;;;;;6.21;100.00;98838.01;1739153;80;21555;-49
2022/11/16 10:32:54;;;;;;;3.17;2.77;;;;;;;6.23;100.00;98834.80;1734955;80;21973;-49
2022/11/16 10:35:40;;;;;;;4.53;2.67;;;;;;;6.28;100.00;98825.27;1733870;80;21125;-51
2022/11/16 10:38:20;;;;;;;4.45;3.65;;;;;;;6.31;100.00;98826.44;1742397;80;21103;-48
2022/11/16 10:40:51;;;;;;;3.27;3.02;;;;;;;6.33;100.00;98821.43;1727622;81;21053;-47
2022/11/16 10:43:25;;;;;;;3.58;3.27;;;;;;;6.35;100.00;98818.70;1725224;81;21096;-48
2022/11/16 10:46:24;;;;;;;5.80;4.55;;;;;;;6.35;100.00;98816.89;1719419;81;21793;-47
2022/11/16 10:49:14;;;;;;;5.35;4.85;;;;;;;6.36;100.00;98819.97;1726102;81;22569;-48
2022/11/16 10:51:42;;;;;;;5.92;5.33;;;;;;;6.35;100.00;98814.22;1721914;81;21052;-47
2022/11/16 10:54:12;;;;;;;6.05;4.90;;;;;;;6.35;100.00;98807.53;1721576;81;21560;-48
2022/11/16 10:56:41;;;;;;;8.68;6.47;;;;;;;6.35;100.00;98812.88;1727879;81;21042;-48
2022/11/16 10:59:10;;;;;;;8.88;5.10;;;;;;;6.35;100.00;98812.02;1721273;81;21884;-49
2022/11/16 11:01:56;;;;;;;6.45;4.15;;;;;;;6.36;100.00;98816.42;1727126;81;21463;-46
2022/11/16 11:04:26;;;;;;;6.83;4.70;;;;;;;6.37;100.00;98815.49;1723725;81;22197;-46
2022/11/16 11:06:56;;;;;;;6.33;4.10;;;;;;;6.28;100.00;98813.23;1728268;81;21587;-47
2022/11/16 11:09:36;;;;;;;7.22;3.95;;;;;;;6.15;100.00;98810.70;1727948;81;21100;-47
2022/11/16 11:15:24;;;;;;;6.65;3.60;;;;;;;6.12;100.00;98809.06;1646116;84;21579;-47
2022/11/16 11:18:25;;;;;;;4.03;3.65;;;;;;;6.15;100.00;98803.56;1725478;81;21050;-48
2022/11/16 11:21:12;;;;;;;5.42;3.30;;;;;;;6.20;100.00;98813.59;1722402;81;21002;-48
2022/11/16 11:23:51;;;;;;;5.78;3.20;;;;;;;6.22;100.00;98811.69;1715145;81;21198;-49
2022/11/16 11:26:39;;;;;;;7.03;5.15;;;;;;;6.24;100.00;98815.17;1722690;81;21848;-50
2022/11/16 11:29:27;;;;;;;7.15;5.28;;;;;;;6.25;100.00;98818.25;1706879;81;21085;-46
2022/11/16 11:31:59;;;;;;;7.95;5.30;;;;;;;6.26;100.00;98810.63;1677083;83;21093;-46
2022/11/16 11:34:41;;;;;;;6.80;4.97;;;;;;;6.28;100.00;98810.56;1695081;81;21093;-48
2022/11/16 11:37:18;;;;;;;10.58;5.60;;;;;;;6.32;100.00;98812.14;1722380;81;21034;-47
2022/11/16 11:39:44;;;;;;;9.43;6.42;;;;;;;6.30;100.00;98813.55;1725812;81;21905;-48
2022/11/16 11:42:19;;;;;;;11.75;6.25;;;;;;;6.29;100.00;98814.98;1721496;81;21498;-50
2022/11/16 11:45:05;;;;;;;7.00;6.15;;;;;;;6.24;100.00;98811.16;1720800;81;21057;-51
2022/11/16 11:48:02;;;;;;;12.80;7.40;;;;;;;6.18;100.00;98811.91;1722895;81;21066;-48
2022/11/16 11:50:54;;;;;;;10.43;5.85;;;;;;;6.14;100.00;98804.95;1649135;84;21003;-50
2022/11/16 11:53:47;;;;;;;7.83;5.75;;;;;;;6.14;100.00;98803.16;1697597;81;22649;-50
2022/11/16 11:56:14;;;;;;;7.80;5.85;;;;;;;6.14;100.00;98807.62;1728485;81;21053;-49
2022/11/16 11:58:41;;;;;;;7.45;5.60;;;;;;;6.07;100.00;98812.39;1722662;81;21148;-49
2022/11/16 12:01:36;;;;;;;7.85;5.58;;;;;;;6.04;100.00;98811.18;1649032;84;21045;-47
2022/11/16 12:04:45;;;;;;;7.28;5.00;;;;;;;6.02;100.00;98808.61;1723311;81;21073;-50
2022/11/16 12:08:13;;;;;;;6.90;4.15;;;;;;;6.00;100.00;98801.59;1646761;84;21840;-46
2022/11/16 12:10:56;;;;;;;5.65;4.47;;;;;;;5.98;100.00;98811.00;1725100;81;21290;-46
2022/11/16 12:13:41;;;;;;;4.90;3.80;;;;;;;5.98;100.00;98808.79;1727148;81;21121;-49
2022/11/16 12:16:45;;;;;;;5.05;3.52;;;;;;;5.95;100.00;98806.28;1722961;81;21581;-49
2022/11/16 12:19:26;;;;;;;3.92;3.40;;;;;;;5.85;100.00;98804.45;1724601;81;21420;-46
2022/11/16 12:22:13;;;;;;;4.30;3.60;;;;;;;5.78;100.00;98799.45;1729051;81;21767;-47
2022/11/16 12:25:02;;;;;;;5.15;3.58;;;;;;;5.72;100.00;98799.22;1724762;81;21034;-45
2022/11/16 12:28:22;;;;;;;4.80;4.12;;;;;;;5.64;100.00;98805.37;1728740;81;21607;-47
2022/11/16 12:31:28;;;;;;;6.17;5.53;;;;;;;5.56;100.00;98801.70;1725132;81;21214;-48
2022/11/16 12:34:35;;;;;;;10.00;6.50;;;;;;;5.55;100.00;98803.09;1653958;84;22653;-47
2022/11/16 12:37:15;;;;;;;11.30;6.73;;;;;;;5.49;100.00;98810.03;1725587;81;21796;-47
2022/11/16 12:40:09;;;;;;;12.90;7.73;;;;;;;5.41;100.00;98809.50;1724449;81;21061;-47
2022/11/16 12:43:00;;;;;;;8.23;6.53;;;;;;;5.39;100.00;98807.35;1729348;81;21488;-50
2022/11/16 12:46:06;;;;;;;9.08;7.25;;;;;;;5.35;100.00;98807.97;1728902;81;21093;-52
2022/11/16 12:49:03;;;;;;;9.70;5.87;;;;;;;5.29;100.00;98809.07;1685510;83;21044;-47
2022/11/16 12:51:56;;;;;;;11.67;6.27;;;;;;;5.30;100.00;98804.14;1683465;83;21848;-48
2022/11/16 12:54:57;;;;;;;8.17;5.87;;;;;;;5.36;100.00;98803.00;1700961;81;21039;-48
2022/11/16 12:57:41;;;;;;;8.80;5.73;;;;;;;5.40;100.00;98806.42;1634331;84;21144;-48
2022/11/16 13:00:16;;;;;;;7.45;6.40;;;;;;;5.42;100.00;98816.57;1723555;81;21042;-47
2022/11/16 13:03:18;;;;;;;10.43;7.45;;;;;;;5.44;100.00;98812.91;1724208;81;21098;-46
2022/11/16 13:05:52;;;;;;;7.20;4.70;;;;;;;5.44;100.00;98806.24;1724889;81;21925;-49
2022/11/16 13:08:46;;;;;;;10.80;7.17;;;;;;;5.45;100.00;98803.95;1722640;81;21030;-49
2022/11/16 13:11:19;;;;;;;9.17;7.17;;;;;;;5.49;100.00;98801.56;1730226;81;22222;-48
2022/11/16 13:13:46;;;;;;;11.28;8.18;;;;;;;5.49;100.00;98800.23;1727764;81;21216;-50
2022/11/16 13:16:15;;;;;;;7.58;6.80;;;;;;;5.52;100.00;98799.23;1723788;81;21366;-49
2022/11/16 13:18:41;;;;;;;9.85;7.22;;;;;;;5.56;100.00;98795.48;1721839;81;21948;-47
2022/11/16 13:21:22;;;;;;;11.50;7.67;;;;;;;5.53;100.00;98790.30;1724240;81;21348;-50
2022/11/16 13:24:25;;;;;;;10.72;7.10;;;;;;;5.49;100.00;98788.22;1649091;84;21571;-48
2022/11/16 13:27:27;;;;;;;7.72;6.03;;;;;;;5.46;100.00;98787.47;1724777;81;21065;-49
2022/11/16 13:30:14;;;;;;;8.75;7.00;;;;;;;5.44;100.00;98784.02;1720371;81;21411;-47
2022/11/16 13:33:00;;;;;;;8.48;6.72;;;;;;;5.45;100.00;98785.27;1724813;81;21764;-50
2022/11/16 13:35:27;;;;;;;7.22;5.58;;;;;;;5.48;100.00;98785.61;1655700;84;21588;-51
2022/11/16 13:37:53;;;;;;;6.40;4.80;;;;;;;5.50;100.00;98787.75;1722192;81;21093;-50
2022/11/16 13:40:31;;;;;;;6.12;4.33;;;;;;;5.49;100.00;98789.55;1724676;81;21059;-48
2022/11/16 13:43:02;;;;;;;6.50;4.87;;;;;;;5.42;100.00;98791.22;1706308;82;21036;-48
2022/11/16 13:45:37;;;;;;;2.87;2.67;;;;;;;5.30;100.00;98789.46;1708023;82;21778;-50
2022/11/16 13:48:18;;;;;;;3.70;2.70;;;;;;;5.25;100.00;98795.47;1713013;82;21594;-48
2022/11/16 13:50:51;;;;;;;4.10;2.47;;;;;;;5.22;100.00;98798.72;1704997;82;21102;-48
2022/11/16 13:53:29;;;;;;;5.13;2.50;;;;;;;5.18;100.00;98791.80;1704821;82;21641;-48
2022/11/16 13:56:03;;;;;;;3.62;2.35;;;;;;;5.12;100.00;98786.69;1709009;82;21036;-51
2022/11/16 13:58:31;;;;;;;2.70;2.13;;;;;;;5.10;100.00;98781.45;1710952;82;21887;-48
2022/11/16 14:01:13;;;;;;;3.47;1.87;;;;;;;5.15;100.00;98781.23;1701546;82;22127;-48
2022/11/16 14:03:42;;;;;;;3.63;2.30;;;;;;;5.18;100.00;98792.66;1704246;82;21064;-48
2022/11/16 14:06:29;;;;;;;5.03;2.70;;;;;;;5.21;100.00;98795.18;1715166;82;21081;-48
2022/11/16 14:08:56;;;;;;;1.90;1.57;;;;;;;5.20;100.00;98792.57;1703727;82;21055;-48
2022/11/16 14:11:32;;;;;;;3.87;1.57;;;;;;;5.21;100.00;98791.18;1706476;82;21958;-50
2022/11/16 14:14:04;;;;;;;2.62;1.55;;;;;;;5.21;100.00;98792.52;1709099;82;21628;-48
2022/11/16 14:16:41;;;;;;;1.87;1.27;;;;;;;5.23;100.00;98796.00;1704790;82;21146;-48
2022/11/16 14:19:41;;;;;;;3.10;1.60;;;;;;;5.22;100.00;98788.05;1708349;82;21139;-49
2022/11/16 14:22:09;;;;;;;1.50;1.30;;;;;;;5.20;100.00;98785.44;1674158;82;21076;-48
2022/11/16 14:24:42;;;;;;;5.17;2.47;;;;;;;5.16;100.00;98791.85;1707764;82;21800;-48
2022/11/16 14:27:29;;;;;;;2.80;1.80;;;;;;;5.17;100.00;98790.05;1709129;82;21057;-48
2022/11/16 14:30:21;;;;;;;3.30;1.70;;;;;;;5.19;100.00;98792.20;1706677;82;21177;-48
2022/11/16 14:32:51;;;;;;;2.80;1.30;;;;;;;5.13;100.00;98794.63;1708291;82;21087;-48
2022/11/16 14:35:39;;;;;;;3.05;1.10;;;;;;;5.06;100.00;98792.28;1703978;82;21041;-47
2022/11/16 14:38:25;;;;;;;3.30;0.90;;;;;;;5.02;100.00;98791.53;1709474;82;21945;-48
2022/11/16 14:40:52;;;;;;;1.97;1.10;;;;;;;4.99;100.00;98788.14;1714764;80;21073;-48
2022/11/16 14:43:23;;;;;;;2.47;1.62;;;;;;;4.90;100.00;98799.59;1732395;81;21127;-48
2022/11/16 14:45:57;;;;;;;4.30;0.90;;;;;;;4.85;100.00;98798.02;1733558;80;21157;-47
2022/11/16 14:48:26;;;;;;;2.83;0.90;;;;;;;4.85;100.00;98784.22;1736846;80;21076;-50
2022/11/16 14:51:07;;;;;;;3.57;1.10;;;;;;;4.88;100.00;98785.91;1735604;80;21809;-48
2022/11/16 14:53:36;;;;;;;1.30;0.63;;;;;;;4.89;100.00;98787.64;1713967;80;21124;-48
2022/11/16 14:56:10;;;;;;;1.90;0.80;;;;;;;4.90;100.00;98782.25;1735575;80;21520;-48
2022/11/16 14:58:38;;;;;;;0.70;0.50;;;;;;;4.93;100.00;98784.77;1726810;80;21128;-48
2022/11/16 15:01:09;;;;;;;1.10;0.70;;;;;;;4.91;100.00;98782.66;1735047;81;21069;-49
2022/11/16 15:03:50;;;;;;;1.30;0.70;;;;;;;4.92;100.00;98792.86;1733365;80;22517;-48
2022/11/16 15:06:17;;;;;;;1.97;0.90;;;;;;;4.91;100.00;98790.66;1716920;80;21565;-48
2022/11/16 15:08:53;;;;;;;2.17;0.90;;;;;;;4.89;100.00;98786.31;1735285;80;21128;-49
2022/11/16 15:14:25;;;;;;;1.47;0.70;;;;;;;4.87;100.00;98794.37;1729099;80;21029;-46
2022/11/16 15:16:55;;;;;;;1.50;0.90;;;;;;;4.88;100.00;98793.44;1731681;80;21033;-47
2022/11/16 15:19:22;;;;;;;1.80;0.90;;;;;;;4.92;100.00;98803.06;1731106;80;21056;-47
2022/11/16 15:21:54;;;;;;;1.67;1.27;;;;;;;4.98;100.00;98806.41;1732059;81;21105;-47
2022/11/16 15:24:25;;;;;;;2.47;0.90;;;;;;;4.98;100.00;98802.41;1734215;80;21144;-48
2022/11/16 15:26:51;;;;;;;1.27;0.90;;;;;;;4.98;100.00;98804.61;1729073;80;21303;-50
2022/11/16 15:29:19;;;;;;;0.90;0.53;;;;;;;4.97;100.00;98802.86;1735047;80;21810;-47
2022/11/16 15:31:46;;;;;;;0.93;0.70;;;;;;;4.98;100.00;98811.27;1731116;80;21061;-48
2022/11/16 15:34:14;;;;;;;0.80;0.67;;;;;;;5.00;100.00;98806.75;1730574;80;21049;-47
2022/11/16 15:36:41;;;;;;;1.37;0.60;;;;;;;5.05;100.00;98805.22;1710443;81;21081;-48
2022/11/16 15:39:21;;;;;;;2.23;0.67;;;;;;;5.08;100.00;98803.30;1733719;80;21061;-47
2022/11/16 15:41:49;;;;;;;4.05;1.70;;;;;;;5.10;100.00;98803.25;1630801;84;21952;-48
2022/11/16 15:44:18;;;;;;;1.70;1.00;;;;;;;5.11;100.00;98800.48;1635206;85;21102;-48
2022/11/16 15:46:50;;;;;;;1.87;1.10;;;;;;;5.12;100.00;98807.56;1668090;83;21355;-47
2022/11/16 15:49:36;;;;;;;1.10;0.80;;;;;;;5.13;100.00;98804.44;1667167;83;21076;-49
2022/11/16 15:52:02;;;;;;;1.27;0.60;;;;;;;5.10;100.00;98804.12;1659059;84;21010;-47
2022/11/16 15:57:16;;;;;;;1.00;0.50;;;;;;;4.99;100.00;98805.48;1690785;82;21108;-48
2022/11/16 15:59:53;;;;;;;0.70;0.60;;;;;;;4.89;100.00;98798.31;1690552;82;21053;-48
2022/11/16 16:02:26;;;;;;;0.77;0.70;;;;;;;4.80;100.00;98793.34;1691208;82;21068;-48
2022/11/16 16:04:52;;;;;;;0.90;0.60;;;;;;;4.76;100.00;98790.41;1631549;85;21165;-46
2022/11/16 16:07:40;;;;;;;0.80;0.70;;;;;;;4.70;100.00;98794.17;1690127;82;21832;-48
2022/11/16 16:10:24;;;;;;;0.90;0.80;;;;;;;4.68;100.00;98800.52;1687137;82;21603;-49
2022/11/16 16:12:58;;;;;;;2.83;1.42;;;;;;;4.62;100.00;98801.60;1670990;82;21908;-49
2022/11/16 16:15:34;;;;;;;0.90;0.60;;;;;;;4.50;100.00;98804.30;1689391;82;21559;-49
2022/11/16 16:18:03;;;;;;;1.47;0.83;;;;;;;4.43;100.00;98797.91;1688122;82;21005;-51
2022/11/16 16:20:32;;;;;;;2.30;1.13;;;;;;;4.39;100.00;98802.51;1688411;82;21188;-51
2022/11/16 16:23:11;;;;;;;1.13;0.90;;;;;;;4.40;100.00;98809.58;1693404;82;21065;-51
2022/11/16 16:25:38;;;;;;;1.53;0.80;;;;;;;4.42;100.00;98802.37;1687109;82;21097;-50
2022/11/16 16:28:04;;;;;;;1.00;0.77;;;;;;;4.46;100.00;98805.80;1689139;82;21362;-50
2022/11/16 16:30:31;;;;;;;2.80;0.73;;;;;;;4.44;100.00;98804.52;1695175;82;21708;-51
2022/11/16 16:32:58;;;;;;;1.30;0.80;;;;;;;4.44;100.00;98802.31;1689633;82;21881;-48
2022/11/16 16:35:25;;;;;;;2.40;0.70;;;;;;;4.43;100.00;98798.78;1692703;82;21104;-49
2022/11/16 16:40:18;;;;;;;1.80;0.93;;;;;;;4.36;100.00;98776.44;1841678;75;22026;-48
2022/11/16 16:42:46;;;;;;;1.70;1.00;;;;;;;4.34;100.00;98796.47;1814078;77;21083;-47
2022/11/16 16:48:51;;;;;;;2.07;1.33;;;;;;;4.24;100.00;98799.56;1780869;78;21022;-53
2022/11/16 16:51:19;;;;;;;2.33;1.20;;;;;;;4.17;100.00;98791.78;1784761;78;21071;-51
2022/11/16 16:53:45;;;;;;;1.97;1.33;;;;;;;4.18;100.00;98789.53;1780738;78;21032;-51
2022/11/16 16:56:14;;;;;;;2.10;1.20;;;;;;;4.20;100.00;98800.12;1785137;79;21234;-52
2022/11/16 16:58:41;;;;;;;1.43;0.90;;;;;;;4.15;100.00;98794.13;1781329;78;21842;-52